RPA4407 KJFK-KCLE
Flight info
| Callsign | RPA4407 |
|---|---|
| Flight time | 1h 52m |
| Altitude | 30000 |
| Route | NEWEL J60 PSB UPPRR TRYBE4 |
| Aircraft | E75L/M-SDE3GILORVW/S |
Departure
| Time | 2026-05-09 00:16 |
|---|---|
| Airport | John F. Kennedy International Airport (KJFK) |
Arrival
| Time | 2026-05-09 02:09 |
|---|---|
| Airport | Cleveland Hopkins International Airport (KCLE) |
| Time | Latitude | Longitude | Altitude | Speed | Heading |
|---|---|---|---|---|---|
| 2026-05-08 23:53 | 40.65031 | -73.79355 | 15 ft | 0 kts | 151° |
| 2026-05-09 00:05 | 40.65031 | -73.79356 | 15 ft | 2 kts | 151° |
| 2026-05-09 00:05 | 40.65049 | -73.79368 | 15 ft | 3 kts | 156° |
| 2026-05-09 00:05 | 40.65068 | -73.79376 | 15 ft | 3 kts | 170° |
| 2026-05-09 00:05 | 40.65086 | -73.79375 | 15 ft | 3 kts | 209° |
| 2026-05-09 00:06 | 40.65094 | -73.79365 | 15 ft | 1 kts | 240° |
| 2026-05-09 00:08 | 40.65091 | -73.79373 | 15 ft | 3 kts | 240° |
| 2026-05-09 00:08 | 40.65074 | -73.79412 | 17 ft | 6 kts | 240° |
| 2026-05-09 00:09 | 40.65050 | -73.79468 | 15 ft | 8 kts | 242° |
| 2026-05-09 00:09 | 40.65040 | -73.79531 | 16 ft | 6 kts | 269° |
| 2026-05-09 00:09 | 40.65041 | -73.79592 | 19 ft | 8 kts | 271° |
| 2026-05-09 00:09 | 40.65042 | -73.79681 | 18 ft | 11 kts | 270° |
| 2026-05-09 00:10 | 40.65033 | -73.79776 | 20 ft | 10 kts | 230° |
| 2026-05-09 00:10 | 40.64964 | -73.79806 | 18 ft | 12 kts | 180° |
| 2026-05-09 00:10 | 40.64876 | -73.79807 | 18 ft | 13 kts | 181° |
| 2026-05-09 00:10 | 40.64777 | -73.79796 | 18 ft | 15 kts | 165° |
| 2026-05-09 00:11 | 40.64682 | -73.79724 | 19 ft | 16 kts | 144° |
| 2026-05-09 00:11 | 40.64590 | -73.79640 | 18 ft | 15 kts | 145° |
| 2026-05-09 00:11 | 40.64489 | -73.79598 | 19 ft | 16 kts | 175° |
| 2026-05-09 00:11 | 40.64375 | -73.79592 | 18 ft | 16 kts | 182° |
| 2026-05-09 00:12 | 40.64263 | -73.79602 | 19 ft | 16 kts | 182° |
| 2026-05-09 00:12 | 40.64157 | -73.79609 | 19 ft | 14 kts | 183° |
| 2026-05-09 00:12 | 40.64056 | -73.79584 | 18 ft | 16 kts | 155° |
| 2026-05-09 00:12 | 40.63972 | -73.79483 | 20 ft | 18 kts | 122° |
| 2026-05-09 00:13 | 40.63906 | -73.79337 | 20 ft | 20 kts | 121° |
| 2026-05-09 00:13 | 40.63831 | -73.79172 | 19 ft | 22 kts | 121° |
| 2026-05-09 00:13 | 40.63749 | -73.78992 | 20 ft | 24 kts | 120° |
| 2026-05-09 00:13 | 40.63662 | -73.78798 | 21 ft | 25 kts | 121° |
| 2026-05-09 00:14 | 40.63569 | -73.78594 | 21 ft | 27 kts | 121° |
| 2026-05-09 00:14 | 40.63480 | -73.78397 | 19 ft | 20 kts | 120° |
| 2026-05-09 00:14 | 40.63427 | -73.78281 | 21 ft | 11 kts | 121° |
| 2026-05-09 00:14 | 40.63396 | -73.78227 | 20 ft | 4 kts | 159° |
| 2026-05-09 00:15 | 40.63384 | -73.78228 | 20 ft | 2 kts | 199° |
| 2026-05-09 00:15 | 40.63350 | -73.78252 | 20 ft | 10 kts | 209° |
| 2026-05-09 00:15 | 40.63326 | -73.78335 | 19 ft | 14 kts | 294° |
| 2026-05-09 00:15 | 40.63485 | -73.78690 | 23 ft | 83 kts | 300° |
| 2026-05-09 00:16 | 40.63910 | -73.79632 | 18 ft | 154 kts | 301° |
| 2026-05-09 00:16 | 40.64540 | -73.81012 | 405 ft | 188 kts | 300° |
| 2026-05-09 00:16 | 40.65007 | -73.82723 | 1139 ft | 211 kts | 268° |
| 2026-05-09 00:16 | 40.64525 | -73.84619 | 1791 ft | 238 kts | 233° |
| 2026-05-09 00:17 | 40.63208 | -73.86147 | 1742 ft | 255 kts | 210° |
| 2026-05-09 00:17 | 40.61803 | -73.87247 | 2241 ft | 217 kts | 211° |
| 2026-05-09 00:17 | 40.60468 | -73.87857 | 3163 ft | 204 kts | 181° |
| 2026-05-09 00:17 | 40.59081 | -73.87264 | 3823 ft | 223 kts | 146° |
| 2026-05-09 00:18 | 40.58157 | -73.85512 | 4393 ft | 252 kts | 111° |
| 2026-05-09 00:18 | 40.58093 | -73.83113 | 4944 ft | 273 kts | 74° |
| 2026-05-09 00:18 | 40.59033 | -73.80936 | 5726 ft | 276 kts | 42° |
| 2026-05-09 00:18 | 40.60488 | -73.79271 | 6593 ft | 279 kts | 37° |
| 2026-05-09 00:19 | 40.61975 | -73.77584 | 7355 ft | 286 kts | 37° |
| 2026-05-09 00:19 | 40.63511 | -73.75916 | 8089 ft | 286 kts | 27° |
| 2026-05-09 00:19 | 40.65325 | -73.74892 | 8829 ft | 285 kts | 14° |
| 2026-05-09 00:19 | 40.67197 | -73.73966 | 9602 ft | 290 kts | 16° |
| 2026-05-09 00:20 | 40.69096 | -73.72987 | 10239 ft | 301 kts | 15° |
| 2026-05-09 00:20 | 40.71092 | -73.71968 | 10718 ft | 314 kts | 15° |
| 2026-05-09 00:20 | 40.73152 | -73.70899 | 11372 ft | 321 kts | 15° |
| 2026-05-09 00:20 | 40.75247 | -73.69799 | 12018 ft | 327 kts | 15° |
| 2026-05-09 00:21 | 40.77350 | -73.68693 | 12738 ft | 330 kts | 15° |
| 2026-05-09 00:21 | 40.79491 | -73.67568 | 13514 ft | 332 kts | 15° |
| 2026-05-09 00:21 | 40.81645 | -73.66431 | 14284 ft | 335 kts | 14° |
| 2026-05-09 00:21 | 40.83815 | -73.65289 | 15104 ft | 337 kts | 14° |
| 2026-05-09 00:22 | 40.86007 | -73.64131 | 15876 ft | 340 kts | 13° |
| 2026-05-09 00:22 | 40.88214 | -73.62966 | 16647 ft | 343 kts | 13° |
| 2026-05-09 00:22 | 40.90444 | -73.61791 | 17388 ft | 346 kts | 13° |
| 2026-05-09 00:22 | 40.92698 | -73.60602 | 18092 ft | 350 kts | 12° |
| 2026-05-09 00:23 | 40.94974 | -73.59403 | 18805 ft | 354 kts | 12° |
| 2026-05-09 00:23 | 40.97278 | -73.58190 | 19467 ft | 358 kts | 12° |
| 2026-05-09 00:23 | 40.99609 | -73.56964 | 20097 ft | 363 kts | 12° |
| 2026-05-09 00:23 | 41.01967 | -73.55723 | 20730 ft | 366 kts | 12° |
| 2026-05-09 00:24 | 41.03540 | -73.54895 | 21126 ft | 368 kts | 12° |
| 2026-05-09 00:24 | 41.05935 | -73.53638 | 21710 ft | 372 kts | 11° |
| 2026-05-09 00:24 | 41.08357 | -73.52366 | 22229 ft | 376 kts | 11° |
| 2026-05-09 00:24 | 41.10807 | -73.51077 | 22795 ft | 380 kts | 11° |
| 2026-05-09 00:25 | 41.14078 | -73.49362 | 23519 ft | 384 kts | 11° |
| 2026-05-09 00:25 | 41.15772 | -73.48476 | 23852 ft | 387 kts | 11° |
| 2026-05-09 00:25 | 41.18287 | -73.47153 | 24424 ft | 391 kts | 11° |
| 2026-05-09 00:25 | 41.20792 | -73.45836 | 24952 ft | 394 kts | 11° |
| 2026-05-09 00:26 | 41.23356 | -73.44493 | 25479 ft | 397 kts | 11° |
| 2026-05-09 00:26 | 41.25937 | -73.43139 | 25977 ft | 400 kts | 11° |
| 2026-05-09 00:26 | 41.28545 | -73.41780 | 26432 ft | 404 kts | 10° |
| 2026-05-09 00:26 | 41.31171 | -73.40407 | 26881 ft | 407 kts | 11° |
| 2026-05-09 00:27 | 41.33826 | -73.39016 | 27042 ft | 414 kts | 11° |
| 2026-05-09 00:27 | 41.36494 | -73.37608 | 27015 ft | 411 kts | 11° |
| 2026-05-09 00:27 | 41.39149 | -73.36210 | 27001 ft | 410 kts | 11° |
| 2026-05-09 00:27 | 41.41783 | -73.34820 | 27589 ft | 402 kts | 10° |
| 2026-05-09 00:28 | 41.44396 | -73.33445 | 28119 ft | 402 kts | 10° |
| 2026-05-09 00:28 | 41.47000 | -73.32061 | 28601 ft | 406 kts | 12° |
| 2026-05-09 00:28 | 41.49525 | -73.30197 | 28997 ft | 426 kts | 26° |
| 2026-05-09 00:28 | 41.51749 | -73.27518 | 29332 ft | 443 kts | 36° |
| 2026-05-09 00:29 | 41.53875 | -73.24492 | 29661 ft | 448 kts | 37° |
| 2026-05-09 00:29 | 41.56015 | -73.21447 | 29988 ft | 450 kts | 37° |
| 2026-05-09 00:29 | 41.58183 | -73.18364 | 30073 ft | 461 kts | 37° |
| 2026-05-09 00:30 | 41.63097 | -73.12962 | 30109 ft | 450 kts | 13° |
| 2026-05-09 00:30 | 41.66039 | -73.11793 | 30138 ft | 435 kts | 357° |
| 2026-05-09 00:30 | 41.69014 | -73.11717 | 30137 ft | 423 kts | 344° |
| 2026-05-09 00:30 | 41.71941 | -73.12208 | 29940 ft | 422 kts | 341° |
| 2026-05-09 00:31 | 41.74869 | -73.12744 | 29939 ft | 426 kts | 342° |
| 2026-05-09 00:31 | 41.80766 | -73.13763 | 29957 ft | 428 kts | 343° |
| 2026-05-09 00:32 | 41.86649 | -73.14788 | 29943 ft | 429 kts | 343° |
| 2026-05-09 00:32 | 41.92583 | -73.15816 | 29929 ft | 429 kts | 343° |
| 2026-05-09 00:33 | 41.98518 | -73.16839 | 29931 ft | 429 kts | 343° |
| 2026-05-09 00:33 | 42.04456 | -73.17871 | 29936 ft | 430 kts | 343° |
| 2026-05-09 00:34 | 42.10404 | -73.18904 | 29941 ft | 430 kts | 343° |
| 2026-05-09 00:34 | 42.16309 | -73.19932 | 29944 ft | 430 kts | 343° |
| 2026-05-09 00:35 | 42.22250 | -73.20973 | 29929 ft | 430 kts | 343° |
| 2026-05-09 00:35 | 42.28194 | -73.22006 | 29927 ft | 430 kts | 343° |
| 2026-05-09 00:36 | 42.34136 | -73.23044 | 29932 ft | 431 kts | 343° |
| 2026-05-09 00:36 | 42.40081 | -73.24087 | 29920 ft | 431 kts | 343° |
| 2026-05-09 00:37 | 42.46035 | -73.25136 | 29933 ft | 431 kts | 343° |
| 2026-05-09 00:37 | 42.51947 | -73.26177 | 29935 ft | 431 kts | 343° |
| 2026-05-09 00:38 | 42.57892 | -73.27232 | 29934 ft | 430 kts | 343° |
| 2026-05-09 00:38 | 42.63849 | -73.28248 | 29947 ft | 430 kts | 343° |
| 2026-05-09 00:39 | 42.69804 | -73.29267 | 29937 ft | 432 kts | 344° |
| 2026-05-09 00:39 | 42.75770 | -73.30281 | 29942 ft | 432 kts | 344° |
| 2026-05-09 00:40 | 42.81691 | -73.31295 | 29949 ft | 431 kts | 344° |
| 2026-05-09 00:40 | 42.87652 | -73.32320 | 29948 ft | 432 kts | 344° |
| 2026-05-09 00:41 | 42.93370 | -73.34192 | 29952 ft | 411 kts | 326° |
| 2026-05-09 00:41 | 42.95712 | -73.36340 | 29953 ft | 401 kts | 313° |
| 2026-05-09 00:41 | 42.97554 | -73.39137 | 29968 ft | 393 kts | 301° |
| 2026-05-09 00:41 | 42.98831 | -73.42405 | 29976 ft | 389 kts | 289° |
| 2026-05-09 00:42 | 42.99502 | -73.45969 | 29995 ft | 389 kts | 278° |
| 2026-05-09 00:42 | 42.99696 | -73.49653 | 29939 ft | 390 kts | 274° |
| 2026-05-09 00:42 | 42.99946 | -73.57045 | 29931 ft | 389 kts | 274° |
| 2026-05-09 00:43 | 43.00154 | -73.64444 | 29938 ft | 390 kts | 274° |
| 2026-05-09 00:43 | 43.00339 | -73.71802 | 29945 ft | 389 kts | 273° |
| 2026-05-09 00:44 | 43.00508 | -73.79204 | 29938 ft | 389 kts | 273° |
| 2026-05-09 00:44 | 43.00667 | -73.86602 | 29944 ft | 389 kts | 273° |
| 2026-05-09 00:45 | 43.00817 | -73.93998 | 29948 ft | 389 kts | 273° |
| 2026-05-09 00:45 | 43.00964 | -74.01401 | 29950 ft | 389 kts | 273° |
| 2026-05-09 00:46 | 43.01103 | -74.08754 | 29950 ft | 389 kts | 273° |
| 2026-05-09 00:46 | 43.01240 | -74.16154 | 29951 ft | 389 kts | 273° |
| 2026-05-09 00:47 | 43.01371 | -74.23542 | 29951 ft | 389 kts | 273° |
| 2026-05-09 00:47 | 43.01625 | -74.30931 | 29947 ft | 389 kts | 275° |
| 2026-05-09 00:48 | 43.01974 | -74.38306 | 29950 ft | 388 kts | 275° |
| 2026-05-09 00:48 | 43.02309 | -74.45628 | 29954 ft | 389 kts | 274° |
| 2026-05-09 00:49 | 43.02640 | -74.53005 | 29952 ft | 389 kts | 274° |
| 2026-05-09 00:49 | 43.02963 | -74.60373 | 29952 ft | 389 kts | 274° |
| 2026-05-09 00:50 | 43.03281 | -74.67756 | 29951 ft | 388 kts | 274° |
| 2026-05-09 00:50 | 43.03595 | -74.75135 | 29952 ft | 389 kts | 274° |
| 2026-05-09 00:51 | 43.03903 | -74.82509 | 29943 ft | 388 kts | 274° |
| 2026-05-09 00:51 | 43.04207 | -74.89881 | 29947 ft | 388 kts | 274° |
| 2026-05-09 00:52 | 43.04506 | -74.97258 | 29946 ft | 388 kts | 274° |
| 2026-05-09 00:52 | 43.04797 | -75.04588 | 29943 ft | 388 kts | 274° |
| 2026-05-09 00:53 | 43.05088 | -75.11963 | 29943 ft | 388 kts | 274° |
| 2026-05-09 00:53 | 43.05376 | -75.19353 | 29949 ft | 388 kts | 274° |
| 2026-05-09 00:54 | 43.05657 | -75.26733 | 29949 ft | 388 kts | 274° |
| 2026-05-09 00:54 | 43.05899 | -75.34064 | 29947 ft | 388 kts | 273° |
| 2026-05-09 00:55 | 43.06095 | -75.41458 | 29941 ft | 389 kts | 273° |
| 2026-05-09 00:55 | 43.06292 | -75.48861 | 29940 ft | 390 kts | 273° |
| 2026-05-09 00:56 | 43.06485 | -75.56271 | 29945 ft | 389 kts | 273° |
| 2026-05-09 00:56 | 43.06678 | -75.63671 | 29945 ft | 389 kts | 273° |
| 2026-05-09 00:57 | 43.06863 | -75.71031 | 29940 ft | 389 kts | 272° |
| 2026-05-09 00:57 | 43.07044 | -75.78431 | 29935 ft | 389 kts | 273° |
| 2026-05-09 00:58 | 43.07223 | -75.85840 | 29935 ft | 389 kts | 272° |
| 2026-05-09 00:58 | 43.07397 | -75.93250 | 29924 ft | 389 kts | 272° |
| 2026-05-09 00:59 | 43.07566 | -76.00606 | 29924 ft | 389 kts | 272° |
| 2026-05-09 00:59 | 43.07732 | -76.07977 | 29926 ft | 387 kts | 272° |
| 2026-05-09 01:00 | 43.07890 | -76.15336 | 29927 ft | 387 kts | 272° |
| 2026-05-09 01:00 | 43.08046 | -76.22694 | 29926 ft | 387 kts | 272° |
| 2026-05-09 01:01 | 43.08198 | -76.30062 | 29924 ft | 387 kts | 272° |
| 2026-05-09 01:01 | 43.08348 | -76.37420 | 29927 ft | 387 kts | 272° |
| 2026-05-09 01:02 | 43.08493 | -76.44788 | 29925 ft | 387 kts | 272° |
| 2026-05-09 01:02 | 43.08630 | -76.52109 | 29925 ft | 387 kts | 272° |
| 2026-05-09 01:03 | 43.08770 | -76.59468 | 29924 ft | 386 kts | 272° |
| 2026-05-09 01:03 | 43.08670 | -76.66808 | 29935 ft | 389 kts | 262° |
| 2026-05-09 01:04 | 43.07895 | -76.70376 | 29937 ft | 394 kts | 251° |
| 2026-05-09 01:04 | 43.06637 | -76.73738 | 29949 ft | 398 kts | 247° |
| 2026-05-09 01:04 | 43.03980 | -76.80332 | 29928 ft | 397 kts | 246° |
| 2026-05-09 01:05 | 43.01293 | -76.86932 | 29932 ft | 397 kts | 246° |
| 2026-05-09 01:06 | 42.97234 | -76.96815 | 29934 ft | 397 kts | 246° |
| 2026-05-09 01:06 | 42.94522 | -77.03385 | 29934 ft | 397 kts | 246° |
| 2026-05-09 01:07 | 42.91822 | -77.09904 | 29936 ft | 397 kts | 246° |
| 2026-05-09 01:07 | 42.89104 | -77.16445 | 29934 ft | 396 kts | 245° |
| 2026-05-09 01:08 | 42.86162 | -77.22842 | 29933 ft | 398 kts | 244° |
| 2026-05-09 01:08 | 42.83222 | -77.29221 | 29929 ft | 397 kts | 244° |
| 2026-05-09 01:09 | 42.80287 | -77.35591 | 29933 ft | 397 kts | 244° |
| 2026-05-09 01:09 | 42.77353 | -77.41956 | 29919 ft | 396 kts | 244° |
| 2026-05-09 01:10 | 42.74436 | -77.48269 | 29944 ft | 396 kts | 244° |
| 2026-05-09 01:10 | 42.71502 | -77.54600 | 29928 ft | 395 kts | 244° |
| 2026-05-09 01:11 | 42.68562 | -77.60923 | 29922 ft | 396 kts | 244° |
| 2026-05-09 01:11 | 42.66108 | -77.66217 | 29924 ft | 395 kts | 244° |
| 2026-05-09 01:12 | 42.63196 | -77.72475 | 29920 ft | 394 kts | 244° |
| 2026-05-09 01:12 | 42.60261 | -77.78765 | 29925 ft | 394 kts | 244° |
| 2026-05-09 01:13 | 42.57325 | -77.85051 | 29926 ft | 393 kts | 244° |
| 2026-05-09 01:13 | 42.54385 | -77.91330 | 29924 ft | 395 kts | 244° |
| 2026-05-09 01:14 | 42.51440 | -77.97606 | 29917 ft | 394 kts | 244° |
| 2026-05-09 01:14 | 42.48498 | -78.03859 | 29932 ft | 392 kts | 244° |
| 2026-05-09 01:15 | 42.45563 | -78.10093 | 29927 ft | 392 kts | 244° |
| 2026-05-09 01:15 | 42.42650 | -78.16277 | 29922 ft | 392 kts | 244° |
| 2026-05-09 01:16 | 42.39711 | -78.22492 | 29918 ft | 392 kts | 244° |
| 2026-05-09 01:16 | 42.36769 | -78.28706 | 29919 ft | 392 kts | 244° |
| 2026-05-09 01:17 | 42.32349 | -78.38017 | 29922 ft | 392 kts | 244° |
| 2026-05-09 01:17 | 42.29394 | -78.44220 | 29919 ft | 392 kts | 244° |
| 2026-05-09 01:18 | 42.26458 | -78.50382 | 29912 ft | 392 kts | 244° |
| 2026-05-09 01:18 | 42.23495 | -78.56572 | 29916 ft | 392 kts | 244° |
| 2026-05-09 01:19 | 42.20537 | -78.62760 | 29917 ft | 392 kts | 244° |
| 2026-05-09 01:19 | 42.17571 | -78.68942 | 29915 ft | 393 kts | 244° |
| 2026-05-09 01:20 | 42.14595 | -78.75103 | 29920 ft | 392 kts | 244° |
| 2026-05-09 01:20 | 42.13210 | -78.78237 | 29941 ft | 379 kts | 251° |
| 2026-05-09 01:20 | 42.12330 | -78.81486 | 29917 ft | 363 kts | 255° |
| 2026-05-09 01:21 | 42.10653 | -78.87806 | 29924 ft | 356 kts | 255° |
| 2026-05-09 01:21 | 42.09002 | -78.94082 | 29930 ft | 354 kts | 255° |
| 2026-05-09 01:22 | 42.07372 | -79.00287 | 29928 ft | 354 kts | 255° |
| 2026-05-09 01:22 | 42.05733 | -79.06514 | 29929 ft | 352 kts | 255° |
| 2026-05-09 01:23 | 42.04099 | -79.12729 | 29930 ft | 352 kts | 255° |
| 2026-05-09 01:23 | 42.02468 | -79.18919 | 29926 ft | 350 kts | 255° |
| 2026-05-09 01:24 | 42.00835 | -79.25095 | 29926 ft | 349 kts | 255° |
| 2026-05-09 01:24 | 41.99208 | -79.31243 | 29927 ft | 349 kts | 255° |
| 2026-05-09 01:25 | 41.97586 | -79.37361 | 29926 ft | 346 kts | 255° |
| 2026-05-09 01:25 | 41.95965 | -79.43451 | 29925 ft | 346 kts | 255° |
| 2026-05-09 01:26 | 41.94354 | -79.49498 | 29930 ft | 346 kts | 255° |
| 2026-05-09 01:26 | 41.92725 | -79.55591 | 29930 ft | 346 kts | 255° |
| 2026-05-09 01:27 | 41.91092 | -79.61677 | 29926 ft | 346 kts | 255° |
| 2026-05-09 01:27 | 41.89459 | -79.67752 | 29924 ft | 345 kts | 255° |
| 2026-05-09 01:28 | 41.87831 | -79.73807 | 29929 ft | 345 kts | 255° |
| 2026-05-09 01:28 | 41.86209 | -79.79827 | 29907 ft | 345 kts | 255° |
| 2026-05-09 01:29 | 41.85400 | -79.82824 | 29605 ft | 337 kts | 256° |
| 2026-05-09 01:29 | 41.84610 | -79.85740 | 29434 ft | 328 kts | 255° |
| 2026-05-09 01:29 | 41.83827 | -79.88616 | 29020 ft | 330 kts | 255° |
| 2026-05-09 01:29 | 41.83037 | -79.91507 | 28574 ft | 329 kts | 256° |
| 2026-05-09 01:30 | 41.82254 | -79.94397 | 28112 ft | 331 kts | 255° |
| 2026-05-09 01:30 | 41.81466 | -79.97308 | 27675 ft | 332 kts | 255° |
| 2026-05-09 01:30 | 41.80682 | -80.00216 | 27217 ft | 331 kts | 255° |
| 2026-05-09 01:30 | 41.79901 | -80.03103 | 26785 ft | 328 kts | 255° |
| 2026-05-09 01:31 | 41.79121 | -80.05973 | 26348 ft | 327 kts | 255° |
| 2026-05-09 01:31 | 41.78345 | -80.08825 | 25919 ft | 325 kts | 255° |
| 2026-05-09 01:31 | 41.77575 | -80.11667 | 25489 ft | 324 kts | 255° |
| 2026-05-09 01:31 | 41.76806 | -80.14502 | 25055 ft | 322 kts | 255° |
| 2026-05-09 01:32 | 41.76054 | -80.17276 | 24635 ft | 321 kts | 255° |
| 2026-05-09 01:32 | 41.75291 | -80.20086 | 24208 ft | 320 kts | 255° |
| 2026-05-09 01:32 | 41.74531 | -80.22893 | 23786 ft | 320 kts | 255° |
| 2026-05-09 01:32 | 41.73771 | -80.25693 | 23356 ft | 319 kts | 255° |
| 2026-05-09 01:33 | 41.73015 | -80.28481 | 22943 ft | 318 kts | 255° |
| 2026-05-09 01:33 | 41.72261 | -80.31260 | 22516 ft | 317 kts | 255° |
| 2026-05-09 01:33 | 41.71510 | -80.34025 | 22105 ft | 316 kts | 255° |
| 2026-05-09 01:33 | 41.70759 | -80.36784 | 21679 ft | 314 kts | 255° |
| 2026-05-09 01:34 | 41.70013 | -80.39525 | 21270 ft | 312 kts | 254° |
| 2026-05-09 01:34 | 41.69268 | -80.42254 | 20857 ft | 312 kts | 254° |
| 2026-05-09 01:34 | 41.68527 | -80.44971 | 20431 ft | 311 kts | 254° |
| 2026-05-09 01:34 | 41.67782 | -80.47695 | 20020 ft | 311 kts | 254° |
| 2026-05-09 01:35 | 41.67039 | -80.50413 | 19638 ft | 309 kts | 254° |
| 2026-05-09 01:35 | 41.66311 | -80.53062 | 19476 ft | 296 kts | 254° |
| 2026-05-09 01:35 | 41.65617 | -80.55597 | 19160 ft | 285 kts | 254° |
| 2026-05-09 01:35 | 41.64955 | -80.58020 | 18850 ft | 277 kts | 254° |
| 2026-05-09 01:36 | 41.64300 | -80.60412 | 18502 ft | 270 kts | 254° |
| 2026-05-09 01:36 | 41.63661 | -80.62739 | 18167 ft | 264 kts | 254° |
| 2026-05-09 01:36 | 41.63031 | -80.65034 | 17782 ft | 261 kts | 254° |
| 2026-05-09 01:36 | 41.62413 | -80.67291 | 17399 ft | 257 kts | 254° |
| 2026-05-09 01:37 | 41.62051 | -80.69582 | 16941 ft | 251 kts | 275° |
| 2026-05-09 01:37 | 41.62542 | -80.71817 | 16493 ft | 253 kts | 292° |
| 2026-05-09 01:37 | 41.63604 | -80.73691 | 16333 ft | 251 kts | 311° |
| 2026-05-09 01:37 | 41.65065 | -80.74922 | 16304 ft | 249 kts | 329° |
| 2026-05-09 01:38 | 41.66790 | -80.75381 | 16081 ft | 260 kts | 349° |
| 2026-05-09 01:38 | 41.68603 | -80.74883 | 15950 ft | 271 kts | 14° |
| 2026-05-09 01:38 | 41.70181 | -80.73441 | 16048 ft | 289 kts | 39° |
| 2026-05-09 01:38 | 41.71252 | -80.71048 | 16088 ft | 312 kts | 69° |
| 2026-05-09 01:39 | 41.71748 | -80.68214 | 16174 ft | 321 kts | 77° |
| 2026-05-09 01:39 | 41.72175 | -80.65235 | 16094 ft | 327 kts | 76° |
| 2026-05-09 01:39 | 41.72435 | -80.62222 | 16119 ft | 328 kts | 93° |
| 2026-05-09 01:39 | 41.71828 | -80.59310 | 16051 ft | 324 kts | 126° |
| 2026-05-09 01:40 | 41.70307 | -80.57242 | 16056 ft | 303 kts | 160° |
| 2026-05-09 01:40 | 41.68377 | -80.56407 | 16107 ft | 283 kts | 186° |
| 2026-05-09 01:40 | 41.66499 | -80.56661 | 16109 ft | 263 kts | 209° |
| 2026-05-09 01:40 | 41.64955 | -80.57792 | 16076 ft | 247 kts | 229° |
| 2026-05-09 01:41 | 41.63893 | -80.59476 | 16065 ft | 236 kts | 246° |
| 2026-05-09 01:41 | 41.63331 | -80.61497 | 16026 ft | 230 kts | 260° |
| 2026-05-09 01:41 | 41.62974 | -80.63585 | 16010 ft | 230 kts | 260° |
| 2026-05-09 01:41 | 41.62625 | -80.65667 | 16027 ft | 229 kts | 260° |
| 2026-05-09 01:42 | 41.62280 | -80.67756 | 16017 ft | 229 kts | 261° |
| 2026-05-09 01:42 | 41.62221 | -80.69867 | 16016 ft | 228 kts | 277° |
| 2026-05-09 01:42 | 41.62681 | -80.71898 | 16024 ft | 231 kts | 293° |
| 2026-05-09 01:42 | 41.63651 | -80.73647 | 16018 ft | 240 kts | 310° |
| 2026-05-09 01:43 | 41.65063 | -80.74878 | 16020 ft | 253 kts | 328° |
| 2026-05-09 01:43 | 41.66841 | -80.75350 | 16023 ft | 272 kts | 351° |
| 2026-05-09 01:43 | 41.68751 | -80.74802 | 16021 ft | 294 kts | 16° |
| 2026-05-09 01:43 | 41.70421 | -80.73093 | 16021 ft | 315 kts | 45° |
| 2026-05-09 01:44 | 41.71395 | -80.70418 | 16043 ft | 326 kts | 72° |
| 2026-05-09 01:44 | 41.71854 | -80.67426 | 16058 ft | 330 kts | 77° |
| 2026-05-09 01:44 | 41.72296 | -80.64409 | 16021 ft | 329 kts | 78° |
| 2026-05-09 01:44 | 41.72373 | -80.61348 | 16000 ft | 330 kts | 102° |
| 2026-05-09 01:45 | 41.71464 | -80.58602 | 15994 ft | 319 kts | 136° |
| 2026-05-09 01:45 | 41.69771 | -80.56887 | 16021 ft | 297 kts | 168° |
| 2026-05-09 01:45 | 41.67845 | -80.56381 | 16076 ft | 277 kts | 192° |
| 2026-05-09 01:45 | 41.66035 | -80.56915 | 16084 ft | 259 kts | 214° |
| 2026-05-09 01:46 | 41.64609 | -80.58240 | 16070 ft | 244 kts | 234° |
| 2026-05-09 01:46 | 41.63679 | -80.60067 | 16043 ft | 234 kts | 251° |
| 2026-05-09 01:46 | 41.63235 | -80.62131 | 16041 ft | 230 kts | 260° |
| 2026-05-09 01:46 | 41.62879 | -80.64215 | 16019 ft | 229 kts | 260° |
| 2026-05-09 01:47 | 41.62533 | -80.66270 | 16029 ft | 229 kts | 260° |
| 2026-05-09 01:47 | 41.62215 | -80.68360 | 16014 ft | 229 kts | 266° |
| 2026-05-09 01:47 | 41.62309 | -80.70467 | 16015 ft | 229 kts | 282° |
| 2026-05-09 01:47 | 41.62920 | -80.72440 | 16024 ft | 233 kts | 298° |
| 2026-05-09 01:48 | 41.64027 | -80.74068 | 16029 ft | 243 kts | 315° |
| 2026-05-09 01:48 | 41.65578 | -80.75112 | 16019 ft | 258 kts | 335° |
| 2026-05-09 01:48 | 41.67424 | -80.75304 | 16024 ft | 278 kts | 359° |
| 2026-05-09 01:48 | 41.69327 | -80.74398 | 16054 ft | 305 kts | 22° |
| 2026-05-09 01:49 | 41.70873 | -80.72305 | 15727 ft | 330 kts | 55° |
| 2026-05-09 01:49 | 41.71614 | -80.69415 | 15474 ft | 335 kts | 77° |
| 2026-05-09 01:49 | 41.72026 | -80.66357 | 15225 ft | 332 kts | 76° |
| 2026-05-09 01:49 | 41.72422 | -80.63316 | 15007 ft | 329 kts | 85° |
| 2026-05-09 01:50 | 41.72169 | -80.60331 | 15055 ft | 322 kts | 115° |
| 2026-05-09 01:50 | 41.70938 | -80.57931 | 15068 ft | 309 kts | 148° |
| 2026-05-09 01:50 | 41.69110 | -80.56630 | 15114 ft | 290 kts | 175° |
| 2026-05-09 01:50 | 41.67176 | -80.56485 | 15167 ft | 270 kts | 200° |
| 2026-05-09 01:51 | 41.65480 | -80.57317 | 15205 ft | 253 kts | 221° |
| 2026-05-09 01:51 | 41.64213 | -80.58843 | 15226 ft | 241 kts | 239° |
| 2026-05-09 01:51 | 41.63441 | -80.60770 | 14570 ft | 242 kts | 259° |
| 2026-05-09 01:51 | 41.63099 | -80.62879 | 14709 ft | 222 kts | 259° |
| 2026-05-09 01:52 | 41.62765 | -80.64867 | 15152 ft | 224 kts | 260° |
| 2026-05-09 01:52 | 41.62420 | -80.66966 | 15210 ft | 234 kts | 260° |
| 2026-05-09 01:52 | 41.62186 | -80.69129 | 15215 ft | 235 kts | 271° |
| 2026-05-09 01:52 | 41.62437 | -80.71292 | 15231 ft | 237 kts | 279° |
| 2026-05-09 01:53 | 41.62490 | -80.73485 | 15243 ft | 238 kts | 265° |
| 2026-05-09 01:53 | 41.62137 | -80.75646 | 15232 ft | 236 kts | 253° |
| 2026-05-09 01:53 | 41.61484 | -80.77607 | 15163 ft | 225 kts | 250° |
| 2026-05-09 01:53 | 41.60841 | -80.79469 | 15055 ft | 216 kts | 250° |
| 2026-05-09 01:54 | 41.60221 | -80.81247 | 15020 ft | 207 kts | 250° |
| 2026-05-09 01:54 | 41.59608 | -80.83045 | 15093 ft | 220 kts | 250° |
| 2026-05-09 01:54 | 41.58949 | -80.84951 | 15146 ft | 230 kts | 250° |
| 2026-05-09 01:54 | 41.58269 | -80.86906 | 14947 ft | 243 kts | 249° |
| 2026-05-09 01:55 | 41.57492 | -80.89082 | 14580 ft | 269 kts | 249° |
| 2026-05-09 01:55 | 41.56702 | -80.91296 | 14315 ft | 264 kts | 249° |
| 2026-05-09 01:55 | 41.55901 | -80.93543 | 13912 ft | 271 kts | 248° |
| 2026-05-09 01:55 | 41.55079 | -80.95863 | 13526 ft | 281 kts | 248° |
| 2026-05-09 01:56 | 41.54235 | -80.98255 | 13150 ft | 288 kts | 248° |
| 2026-05-09 01:56 | 41.53376 | -81.00698 | 12763 ft | 292 kts | 248° |
| 2026-05-09 01:56 | 41.52513 | -81.03161 | 12400 ft | 293 kts | 248° |
| 2026-05-09 01:56 | 41.51717 | -81.05680 | 11769 ft | 295 kts | 256° |
| 2026-05-09 01:57 | 41.51467 | -81.08368 | 11198 ft | 292 kts | 268° |
| 2026-05-09 01:57 | 41.51378 | -81.11056 | 10739 ft | 296 kts | 267° |
| 2026-05-09 01:57 | 41.51262 | -81.13814 | 10167 ft | 296 kts | 266° |
| 2026-05-09 01:57 | 41.51160 | -81.16530 | 9767 ft | 293 kts | 266° |
| 2026-05-09 01:58 | 41.51086 | -81.18365 | 9482 ft | 292 kts | 266° |
| 2026-05-09 01:58 | 41.50981 | -81.21030 | 9050 ft | 279 kts | 266° |
| 2026-05-09 01:58 | 41.50893 | -81.23522 | 8667 ft | 258 kts | 266° |
| 2026-05-09 01:58 | 41.50790 | -81.25855 | 8346 ft | 246 kts | 266° |
| 2026-05-09 01:59 | 41.50698 | -81.28108 | 8084 ft | 248 kts | 266° |
| 2026-05-09 01:59 | 41.50597 | -81.30411 | 7760 ft | 248 kts | 266° |
| 2026-05-09 01:59 | 41.50506 | -81.32711 | 7409 ft | 247 kts | 266° |
| 2026-05-09 01:59 | 41.50403 | -81.34989 | 7080 ft | 245 kts | 266° |
| 2026-05-09 02:00 | 41.50303 | -81.37250 | 6752 ft | 243 kts | 266° |
| 2026-05-09 02:00 | 41.50250 | -81.39500 | 6428 ft | 242 kts | 275° |
| 2026-05-09 02:00 | 41.50876 | -81.41555 | 6174 ft | 243 kts | 307° |
| 2026-05-09 02:00 | 41.52180 | -81.42951 | 6135 ft | 238 kts | 322° |
| 2026-05-09 02:01 | 41.53549 | -81.44196 | 6121 ft | 240 kts | 321° |
| 2026-05-09 02:01 | 41.54913 | -81.45461 | 6030 ft | 243 kts | 321° |
| 2026-05-09 02:01 | 41.56301 | -81.46752 | 6013 ft | 242 kts | 321° |
| 2026-05-09 02:01 | 41.57690 | -81.48042 | 6015 ft | 242 kts | 322° |
| 2026-05-09 02:02 | 41.59071 | -81.49352 | 6005 ft | 242 kts | 316° |
| 2026-05-09 02:02 | 41.60091 | -81.51151 | 5465 ft | 250 kts | 288° |
| 2026-05-09 02:02 | 41.60306 | -81.53337 | 5274 ft | 226 kts | 266° |
| 2026-05-09 02:02 | 41.60031 | -81.55354 | 5080 ft | 220 kts | 244° |
| 2026-05-09 02:03 | 41.59092 | -81.56969 | 4735 ft | 220 kts | 225° |
| 2026-05-09 02:03 | 41.58049 | -81.58440 | 4428 ft | 217 kts | 231° |
| 2026-05-09 02:03 | 41.57126 | -81.60047 | 4050 ft | 216 kts | 233° |
| 2026-05-09 02:03 | 41.56190 | -81.61569 | 3701 ft | 214 kts | 229° |
| 2026-05-09 02:04 | 41.55232 | -81.63048 | 3315 ft | 205 kts | 230° |
| 2026-05-09 02:04 | 41.54349 | -81.64479 | 2950 ft | 193 kts | 230° |
| 2026-05-09 02:04 | 41.53534 | -81.65789 | 3017 ft | 175 kts | 229° |
| 2026-05-09 02:04 | 41.52738 | -81.67048 | 3052 ft | 180 kts | 229° |
| 2026-05-09 02:05 | 41.51933 | -81.68342 | 3056 ft | 181 kts | 229° |
| 2026-05-09 02:05 | 41.51121 | -81.69635 | 3064 ft | 182 kts | 229° |
| 2026-05-09 02:05 | 41.50307 | -81.70931 | 3070 ft | 182 kts | 229° |
| 2026-05-09 02:05 | 41.49501 | -81.72220 | 3092 ft | 177 kts | 229° |
| 2026-05-09 02:06 | 41.48700 | -81.73496 | 2991 ft | 184 kts | 229° |
| 2026-05-09 02:06 | 41.47879 | -81.74801 | 2727 ft | 183 kts | 229° |
| 2026-05-09 02:06 | 41.47065 | -81.76101 | 2473 ft | 181 kts | 229° |
| 2026-05-09 02:07 | 41.45609 | -81.78418 | 2032 ft | 149 kts | 228° |
| 2026-05-09 02:07 | 41.44957 | -81.79453 | 1836 ft | 142 kts | 228° |
| 2026-05-09 02:07 | 41.44330 | -81.80452 | 1659 ft | 139 kts | 228° |
| 2026-05-09 02:07 | 41.43719 | -81.81430 | 1491 ft | 135 kts | 229° |
| 2026-05-09 02:08 | 41.43118 | -81.82406 | 1333 ft | 136 kts | 227° |
| 2026-05-09 02:08 | 41.42503 | -81.83366 | 1138 ft | 137 kts | 229° |
| 2026-05-09 02:08 | 41.41895 | -81.84339 | 931 ft | 136 kts | 229° |
| 2026-05-09 02:08 | 41.41302 | -81.85268 | 783 ft | 125 kts | 229° |
| 2026-05-09 02:09 | 41.40816 | -81.86041 | 782 ft | 90 kts | 230° |
| 2026-05-09 02:09 | 41.40518 | -81.86511 | 780 ft | 35 kts | 229° |
| 2026-05-09 02:09 | 41.40388 | -81.86642 | 780 ft | 17 kts | 196° |
| 2026-05-09 02:09 | 41.40314 | -81.86644 | 780 ft | 8 kts | 156° |
| 2026-05-09 02:10 | 41.40257 | -81.86588 | 780 ft | 13 kts | 140° |
| 2026-05-09 02:10 | 41.40173 | -81.86493 | 779 ft | 18 kts | 140° |
| 2026-05-09 02:10 | 41.40083 | -81.86393 | 778 ft | 13 kts | 140° |
| 2026-05-09 02:10 | 41.40027 | -81.86330 | 780 ft | 10 kts | 140° |
| 2026-05-09 02:11 | 41.39984 | -81.86261 | 780 ft | 9 kts | 101° |
| 2026-05-09 02:11 | 41.40012 | -81.86185 | 780 ft | 10 kts | 46° |
| 2026-05-09 02:11 | 41.40061 | -81.86106 | 780 ft | 11 kts | 51° |
| 2026-05-09 02:11 | 41.40108 | -81.86031 | 780 ft | 9 kts | 49° |
| 2026-05-09 02:12 | 41.40158 | -81.85973 | 780 ft | 11 kts | 28° |
| 2026-05-09 02:12 | 41.40230 | -81.85948 | 780 ft | 11 kts | 7° |
| 2026-05-09 02:12 | 41.40298 | -81.85917 | 781 ft | 10 kts | 34° |
| 2026-05-09 02:12 | 41.40350 | -81.85847 | 781 ft | 11 kts | 51° |
| 2026-05-09 02:13 | 41.40391 | -81.85781 | 781 ft | 10 kts | 50° |
| 2026-05-09 02:13 | 41.40440 | -81.85705 | 781 ft | 12 kts | 49° |
| 2026-05-09 02:13 | 41.40483 | -81.85637 | 781 ft | 9 kts | 50° |
| 2026-05-09 02:13 | 41.40524 | -81.85572 | 781 ft | 10 kts | 50° |
| 2026-05-09 02:14 | 41.40568 | -81.85503 | 780 ft | 10 kts | 49° |
| 2026-05-09 02:14 | 41.40614 | -81.85430 | 780 ft | 11 kts | 50° |
| 2026-05-09 02:14 | 41.40651 | -81.85338 | 780 ft | 11 kts | 81° |
| 2026-05-09 02:14 | 41.40649 | -81.85236 | 780 ft | 11 kts | 94° |
| 2026-05-09 02:15 | 41.40645 | -81.85134 | 780 ft | 11 kts | 93° |
| 2026-05-09 02:15 | 41.40640 | -81.85023 | 780 ft | 13 kts | 93° |
| 2026-05-09 02:15 | 41.40635 | -81.84904 | 780 ft | 13 kts | 93° |
| 2026-05-09 02:15 | 41.40630 | -81.84788 | 780 ft | 13 kts | 93° |
| 2026-05-09 02:16 | 41.40624 | -81.84663 | 780 ft | 13 kts | 93° |
| 2026-05-09 02:16 | 41.40619 | -81.84549 | 780 ft | 9 kts | 93° |
| 2026-05-09 02:16 | 41.40622 | -81.84463 | 780 ft | 9 kts | 65° |
| 2026-05-09 02:16 | 41.40678 | -81.84431 | 780 ft | 10 kts | 359° |
| 2026-05-09 02:17 | 41.40758 | -81.84433 | 780 ft | 11 kts | 359° |
| 2026-05-09 02:17 | 41.40830 | -81.84434 | 780 ft | 11 kts | 359° |
| 2026-05-09 02:17 | 41.40900 | -81.84406 | 780 ft | 11 kts | 47° |
| 2026-05-09 02:17 | 41.40941 | -81.84325 | 780 ft | 9 kts | 63° |
| 2026-05-09 02:18 | 41.40963 | -81.84252 | 780 ft | 8 kts | 70° |
| 2026-05-09 02:18 | 41.40978 | -81.84192 | 780 ft | 6 kts | 71° |
| 2026-05-09 02:18 | 41.40985 | -81.84166 | 780 ft | 0 kts | 72° |
| 2026-05-09 02:19 | 41.40993 | -81.84134 | 780 ft | 5 kts | 71° |
| 2026-05-09 02:19 | 41.41009 | -81.84077 | 780 ft | 6 kts | 69° |
| 2026-05-09 02:19 | 41.41002 | -81.84023 | 780 ft | 7 kts | 133° |
| 2026-05-09 02:19 | 41.40979 | -81.83992 | 780 ft | 1 kts | 134° |
| 2026-05-09 02:20 | 41.40974 | -81.83985 | 780 ft | 1 kts | 134° |
| 2026-05-09 02:20 | 41.40973 | -81.83984 | 780 ft | 0 kts | 134° |